sensor_id;sensor_type;location;lat;lon;timestamp;P1;durP1;ratioP1;P2;durP2;ratioP2
8268;SDS011;4174;48.304;16.364;2024-01-30T00:02:42;20.40;;;8.23;;
8268;SDS011;4174;48.304;16.364;2024-01-30T00:08:46;18.80;;;7.50;;
8268;SDS011;4174;48.304;16.364;2024-01-30T00:14:49;19.97;;;8.27;;
8268;SDS011;4174;48.304;16.364;2024-01-30T00:20:52;22.43;;;8.03;;
8268;SDS011;4174;48.304;16.364;2024-01-30T00:26:56;20.05;;;8.15;;
8268;SDS011;4174;48.304;16.364;2024-01-30T00:33:00;18.37;;;7.17;;
8268;SDS011;4174;48.304;16.364;2024-01-30T00:39:04;18.47;;;7.37;;
8268;SDS011;4174;48.304;16.364;2024-01-30T00:45:15;20.33;;;8.07;;
8268;SDS011;4174;48.304;16.364;2024-01-30T00:51:18;18.52;;;7.10;;
8268;SDS011;4174;48.304;16.364;2024-01-30T00:57:22;20.07;;;7.57;;
8268;SDS011;4174;48.304;16.364;2024-01-30T01:03:26;19.60;;;7.20;;
8268;SDS011;4174;48.304;16.364;2024-01-30T01:09:30;20.45;;;7.75;;
8268;SDS011;4174;48.304;16.364;2024-01-30T01:15:33;21.00;;;7.70;;
8268;SDS011;4174;48.304;16.364;2024-01-30T01:21:37;18.27;;;7.53;;
8268;SDS011;4174;48.304;16.364;2024-01-30T01:27:41;21.47;;;7.83;;
8268;SDS011;4174;48.304;16.364;2024-01-30T01:33:44;18.60;;;7.43;;
8268;SDS011;4174;48.304;16.364;2024-01-30T01:39:48;19.23;;;7.13;;
8268;SDS011;4174;48.304;16.364;2024-01-30T01:45:51;21.15;;;8.60;;
8268;SDS011;4174;48.304;16.364;2024-01-30T01:51:57;18.67;;;7.40;;
8268;SDS011;4174;48.304;16.364;2024-01-30T01:58:00;20.00;;;7.72;;
8268;SDS011;4174;48.304;16.364;2024-01-30T02:04:03;19.48;;;8.15;;
8268;SDS011;4174;48.304;16.364;2024-01-30T02:10:07;18.90;;;6.80;;
8268;SDS011;4174;48.304;16.364;2024-01-30T02:16:11;19.52;;;7.57;;
8268;SDS011;4174;48.304;16.364;2024-01-30T02:22:15;19.63;;;7.53;;
8268;SDS011;4174;48.304;16.364;2024-01-30T02:28:18;17.45;;;6.85;;
8268;SDS011;4174;48.304;16.364;2024-01-30T02:34:20;19.75;;;7.75;;
8268;SDS011;4174;48.304;16.364;2024-01-30T02:40:24;21.23;;;7.97;;
8268;SDS011;4174;48.304;16.364;2024-01-30T02:46:27;17.93;;;6.80;;
8268;SDS011;4174;48.304;16.364;2024-01-30T02:52:32;21.17;;;7.43;;
8268;SDS011;4174;48.304;16.364;2024-01-30T02:58:35;19.37;;;6.93;;
8268;SDS011;4174;48.304;16.364;2024-01-30T03:04:42;18.83;;;7.27;;
8268;SDS011;4174;48.304;16.364;2024-01-30T03:10:45;20.93;;;7.93;;
8268;SDS011;4174;48.304;16.364;2024-01-30T03:16:49;20.95;;;7.40;;
8268;SDS011;4174;48.304;16.364;2024-01-30T03:22:53;19.03;;;7.93;;
8268;SDS011;4174;48.304;16.364;2024-01-30T03:28:56;19.17;;;7.90;;
8268;SDS011;4174;48.304;16.364;2024-01-30T03:35:00;21.20;;;8.30;;
8268;SDS011;4174;48.304;16.364;2024-01-30T03:41:07;20.00;;;7.30;;
8268;SDS011;4174;48.304;16.364;2024-01-30T03:47:07;23.83;;;8.23;;
8268;SDS011;4174;48.304;16.364;2024-01-30T03:53:11;22.80;;;7.67;;
8268;SDS011;4174;48.304;16.364;2024-01-30T03:59:15;22.10;;;8.38;;
8268;SDS011;4174;48.304;16.364;2024-01-30T04:05:19;22.00;;;8.40;;
8268;SDS011;4174;48.304;16.364;2024-01-30T04:11:23;23.13;;;8.87;;
8268;SDS011;4174;48.304;16.364;2024-01-30T04:17:27;26.05;;;10.60;;
8268;SDS011;4174;48.304;16.364;2024-01-30T04:23:31;26.87;;;11.77;;
8268;SDS011;4174;48.304;16.364;2024-01-30T04:29:35;22.23;;;8.57;;
8268;SDS011;4174;48.304;16.364;2024-01-30T04:35:39;23.00;;;9.13;;
8268;SDS011;4174;48.304;16.364;2024-01-30T04:41:42;23.57;;;9.23;;
8268;SDS011;4174;48.304;16.364;2024-01-30T04:47:47;23.85;;;10.13;;
8268;SDS011;4174;48.304;16.364;2024-01-30T04:53:50;23.30;;;9.47;;
8268;SDS011;4174;48.304;16.364;2024-01-30T04:59:54;21.58;;;8.05;;
8268;SDS011;4174;48.304;16.364;2024-01-30T05:05:59;19.60;;;8.23;;
8268;SDS011;4174;48.304;16.364;2024-01-30T05:12:03;21.37;;;8.90;;
8268;SDS011;4174;48.304;16.364;2024-01-30T05:18:08;20.50;;;7.65;;
8268;SDS011;4174;48.304;16.364;2024-01-30T05:24:13;21.90;;;8.93;;
8268;SDS011;4174;48.304;16.364;2024-01-30T05:30:17;19.73;;;8.10;;
8268;SDS011;4174;48.304;16.364;2024-01-30T05:36:20;24.33;;;9.73;;
8268;SDS011;4174;48.304;16.364;2024-01-30T05:42:25;25.07;;;9.10;;
8268;SDS011;4174;48.304;16.364;2024-01-30T05:48:28;23.90;;;8.97;;
8268;SDS011;4174;48.304;16.364;2024-01-30T05:54:32;22.90;;;11.52;;
8268;SDS011;4174;48.304;16.364;2024-01-30T06:00:35;24.47;;;10.97;;
8268;SDS011;4174;48.304;16.364;2024-01-30T06:06:39;23.70;;;11.90;;
8268;SDS011;4174;48.304;16.364;2024-01-30T06:12:42;26.27;;;12.77;;
8268;SDS011;4174;48.304;16.364;2024-01-30T06:18:47;26.70;;;15.37;;
8268;SDS011;4174;48.304;16.364;2024-01-30T06:24:51;25.20;;;13.73;;
8268;SDS011;4174;48.304;16.364;2024-01-30T06:30:54;29.70;;;15.90;;
8268;SDS011;4174;48.304;16.364;2024-01-30T06:36:58;26.63;;;13.17;;
8268;SDS011;4174;48.304;16.364;2024-01-30T06:43:02;25.63;;;10.87;;
8268;SDS011;4174;48.304;16.364;2024-01-30T06:49:06;22.87;;;9.93;;
8268;SDS011;4174;48.304;16.364;2024-01-30T06:55:09;22.00;;;9.30;;
8268;SDS011;4174;48.304;16.364;2024-01-30T07:01:13;24.40;;;9.53;;
8268;SDS011;4174;48.304;16.364;2024-01-30T07:07:16;23.12;;;9.63;;
8268;SDS011;4174;48.304;16.364;2024-01-30T07:13:20;22.03;;;8.70;;
8268;SDS011;4174;48.304;16.364;2024-01-30T07:19:24;22.87;;;9.97;;
8268;SDS011;4174;48.304;16.364;2024-01-30T07:25:28;19.90;;;8.60;;
8268;SDS011;4174;48.304;16.364;2024-01-30T07:31:32;24.80;;;8.70;;
8268;SDS011;4174;48.304;16.364;2024-01-30T07:37:35;22.98;;;9.20;;
8268;SDS011;4174;48.304;16.364;2024-01-30T07:43:39;22.33;;;8.57;;
8268;SDS011;4174;48.304;16.364;2024-01-30T07:49:43;22.43;;;8.73;;
8268;SDS011;4174;48.304;16.364;2024-01-30T07:55:47;21.57;;;7.93;;
8268;SDS011;4174;48.304;16.364;2024-01-30T08:01:50;22.50;;;8.30;;
8268;SDS011;4174;48.304;16.364;2024-01-30T08:07:54;17.42;;;6.80;;
8268;SDS011;4174;48.304;16.364;2024-01-30T08:13:58;20.50;;;7.60;;
8268;SDS011;4174;48.304;16.364;2024-01-30T08:20:02;19.05;;;7.75;;
8268;SDS011;4174;48.304;16.364;2024-01-30T08:26:07;17.73;;;7.30;;
8268;SDS011;4174;48.304;16.364;2024-01-30T08:32:11;17.20;;;7.70;;
8268;SDS011;4174;48.304;16.364;2024-01-30T08:38:14;19.80;;;7.90;;
8268;SDS011;4174;48.304;16.364;2024-01-30T08:44:19;18.45;;;7.50;;
8268;SDS011;4174;48.304;16.364;2024-01-30T08:50:23;17.67;;;7.00;;
8268;SDS011;4174;48.304;16.364;2024-01-30T08:56:27;18.77;;;8.00;;
8268;SDS011;4174;48.304;16.364;2024-01-30T09:02:31;19.23;;;7.80;;
8268;SDS011;4174;48.304;16.364;2024-01-30T09:08:35;17.10;;;7.70;;
8268;SDS011;4174;48.304;16.364;2024-01-30T09:14:39;20.48;;;7.53;;
8268;SDS011;4174;48.304;16.364;2024-01-30T09:20:42;17.67;;;7.80;;
8268;SDS011;4174;48.304;16.364;2024-01-30T09:26:45;19.90;;;8.40;;
8268;SDS011;4174;48.304;16.364;2024-01-30T09:32:49;15.63;;;6.32;;
8268;SDS011;4174;48.304;16.364;2024-01-30T09:38:55;20.73;;;8.00;;
8268;SDS011;4174;48.304;16.364;2024-01-30T09:44:59;17.83;;;7.20;;
8268;SDS011;4174;48.304;16.364;2024-01-30T09:51:04;16.47;;;7.37;;
8268;SDS011;4174;48.304;16.364;2024-01-30T09:57:08;18.73;;;7.07;;
8268;SDS011;4174;48.304;16.364;2024-01-30T10:03:14;16.77;;;7.43;;
8268;SDS011;4174;48.304;16.364;2024-01-30T10:09:18;17.20;;;7.00;;
8268;SDS011;4174;48.304;16.364;2024-01-30T10:15:21;19.70;;;7.68;;
8268;SDS011;4174;48.304;16.364;2024-01-30T10:21:25;16.55;;;7.45;;
8268;SDS011;4174;48.304;16.364;2024-01-30T10:27:30;18.20;;;7.10;;
8268;SDS011;4174;48.304;16.364;2024-01-30T10:33:33;17.45;;;6.95;;
8268;SDS011;4174;48.304;16.364;2024-01-30T10:39:39;16.45;;;7.18;;
8268;SDS011;4174;48.304;16.364;2024-01-30T10:45:43;18.40;;;7.20;;
8268;SDS011;4174;48.304;16.364;2024-01-30T10:51:46;18.40;;;7.63;;
8268;SDS011;4174;48.304;16.364;2024-01-30T10:57:50;17.53;;;7.50;;
8268;SDS011;4174;48.304;16.364;2024-01-30T11:03:53;17.63;;;7.80;;
8268;SDS011;4174;48.304;16.364;2024-01-30T11:10:01;16.87;;;7.68;;
8268;SDS011;4174;48.304;16.364;2024-01-30T11:16:07;20.10;;;7.97;;
8268;SDS011;4174;48.304;16.364;2024-01-30T11:22:10;16.87;;;7.27;;
8268;SDS011;4174;48.304;16.364;2024-01-30T11:28:14;17.70;;;7.60;;
8268;SDS011;4174;48.304;16.364;2024-01-30T11:34:16;19.20;;;7.73;;
8268;SDS011;4174;48.304;16.364;2024-01-30T11:40:19;16.67;;;7.00;;
8268;SDS011;4174;48.304;16.364;2024-01-30T11:46:24;18.60;;;6.87;;
8268;SDS011;4174;48.304;16.364;2024-01-30T11:52:25;15.97;;;6.80;;
8268;SDS011;4174;48.304;16.364;2024-01-30T11:58:28;15.13;;;6.93;;
8268;SDS011;4174;48.304;16.364;2024-01-30T12:04:32;16.87;;;7.12;;
8268;SDS011;4174;48.304;16.364;2024-01-30T12:10:36;16.63;;;6.37;;
8268;SDS011;4174;48.304;16.364;2024-01-30T12:16:39;14.37;;;5.77;;
8268;SDS011;4174;48.304;16.364;2024-01-30T12:22:44;17.42;;;6.60;;
8268;SDS011;4174;48.304;16.364;2024-01-30T12:28:49;15.83;;;6.30;;
8268;SDS011;4174;48.304;16.364;2024-01-30T12:34:55;16.60;;;6.97;;
8268;SDS011;4174;48.304;16.364;2024-01-30T12:40:58;16.12;;;6.57;;
8268;SDS011;4174;48.304;16.364;2024-01-30T12:47:03;16.80;;;6.70;;
8268;SDS011;4174;48.304;16.364;2024-01-30T12:53:08;15.15;;;6.50;;
8268;SDS011;4174;48.304;16.364;2024-01-30T12:59:12;15.03;;;6.97;;
8268;SDS011;4174;48.304;16.364;2024-01-30T13:05:15;14.52;;;6.22;;
8268;SDS011;4174;48.304;16.364;2024-01-30T13:11:20;15.93;;;6.72;;
8268;SDS011;4174;48.304;16.364;2024-01-30T13:17:24;20.02;;;6.87;;
8268;SDS011;4174;48.304;16.364;2024-01-30T13:23:27;16.27;;;6.30;;
8268;SDS011;4174;48.304;16.364;2024-01-30T13:29:31;14.10;;;6.00;;
8268;SDS011;4174;48.304;16.364;2024-01-30T13:35:35;16.10;;;5.95;;
8268;SDS011;4174;48.304;16.364;2024-01-30T13:41:38;12.57;;;5.07;;
8268;SDS011;4174;48.304;16.364;2024-01-30T13:47:42;12.80;;;5.13;;
8268;SDS011;4174;48.304;16.364;2024-01-30T13:53:46;12.27;;;5.37;;
8268;SDS011;4174;48.304;16.364;2024-01-30T13:59:50;13.70;;;5.63;;
8268;SDS011;4174;48.304;16.364;2024-01-30T14:05:54;12.73;;;5.40;;
8268;SDS011;4174;48.304;16.364;2024-01-30T14:11:58;11.57;;;4.80;;
8268;SDS011;4174;48.304;16.364;2024-01-30T14:18:01;14.47;;;5.20;;
8268;SDS011;4174;48.304;16.364;2024-01-30T14:24:05;14.35;;;5.07;;
8268;SDS011;4174;48.304;16.364;2024-01-30T14:30:11;13.80;;;5.27;;
8268;SDS011;4174;48.304;16.364;2024-01-30T14:36:14;12.23;;;4.67;;
8268;SDS011;4174;48.304;16.364;2024-01-30T14:42:18;13.98;;;5.28;;
8268;SDS011;4174;48.304;16.364;2024-01-30T14:48:22;12.17;;;5.37;;
8268;SDS011;4174;48.304;16.364;2024-01-30T14:54:26;14.55;;;5.95;;
8268;SDS011;4174;48.304;16.364;2024-01-30T15:00:29;14.00;;;5.50;;
8268;SDS011;4174;48.304;16.364;2024-01-30T15:06:33;15.60;;;6.00;;
8268;SDS011;4174;48.304;16.364;2024-01-30T15:12:36;14.20;;;5.60;;
8268;SDS011;4174;48.304;16.364;2024-01-30T15:18:39;17.37;;;5.80;;
8268;SDS011;4174;48.304;16.364;2024-01-30T15:24:43;16.10;;;5.90;;
8268;SDS011;4174;48.304;16.364;2024-01-30T15:30:47;14.50;;;5.72;;
8268;SDS011;4174;48.304;16.364;2024-01-30T15:36:50;15.77;;;5.73;;
8268;SDS011;4174;48.304;16.364;2024-01-30T15:42:54;16.53;;;5.90;;
8268;SDS011;4174;48.304;16.364;2024-01-30T15:48:59;15.03;;;5.97;;
8268;SDS011;4174;48.304;16.364;2024-01-30T15:55:03;15.70;;;5.95;;
8268;SDS011;4174;48.304;16.364;2024-01-30T16:01:08;16.70;;;6.53;;
8268;SDS011;4174;48.304;16.364;2024-01-30T16:07:12;16.33;;;7.00;;
8268;SDS011;4174;48.304;16.364;2024-01-30T16:13:15;17.43;;;6.80;;
8268;SDS011;4174;48.304;16.364;2024-01-30T16:19:18;18.13;;;6.27;;
8268;SDS011;4174;48.304;16.364;2024-01-30T16:25:21;17.12;;;5.60;;
8268;SDS011;4174;48.304;16.364;2024-01-30T16:31:25;14.00;;;5.37;;
8268;SDS011;4174;48.304;16.364;2024-01-30T16:37:29;14.07;;;5.50;;
8268;SDS011;4174;48.304;16.364;2024-01-30T16:43:32;13.27;;;5.47;;
8268;SDS011;4174;48.304;16.364;2024-01-30T16:49:36;15.03;;;5.50;;
8268;SDS011;4174;48.304;16.364;2024-01-30T16:55:41;14.48;;;5.55;;
8268;SDS011;4174;48.304;16.364;2024-01-30T17:01:45;19.47;;;6.40;;
8268;SDS011;4174;48.304;16.364;2024-01-30T17:07:49;14.60;;;5.90;;
8268;SDS011;4174;48.304;16.364;2024-01-30T17:13:53;14.87;;;6.27;;
8268;SDS011;4174;48.304;16.364;2024-01-30T17:19:57;15.47;;;6.17;;
8268;SDS011;4174;48.304;16.364;2024-01-30T17:26:01;19.58;;;7.60;;
8268;SDS011;4174;48.304;16.364;2024-01-30T17:32:06;14.87;;;5.87;;
8268;SDS011;4174;48.304;16.364;2024-01-30T17:38:10;17.52;;;6.68;;
8268;SDS011;4174;48.304;16.364;2024-01-30T17:44:15;14.80;;;5.73;;
8268;SDS011;4174;48.304;16.364;2024-01-30T17:50:18;17.50;;;6.80;;
8268;SDS011;4174;48.304;16.364;2024-01-30T17:56:23;17.92;;;6.37;;
8268;SDS011;4174;48.304;16.364;2024-01-30T18:02:27;17.37;;;6.60;;
8268;SDS011;4174;48.304;16.364;2024-01-30T18:08:32;16.55;;;6.68;;
8268;SDS011;4174;48.304;16.364;2024-01-30T18:14:36;18.80;;;6.90;;
8268;SDS011;4174;48.304;16.364;2024-01-30T18:20:39;17.43;;;7.27;;
8268;SDS011;4174;48.304;16.364;2024-01-30T18:26:44;19.45;;;7.43;;
8268;SDS011;4174;48.304;16.364;2024-01-30T18:32:47;18.20;;;7.30;;
8268;SDS011;4174;48.304;16.364;2024-01-30T18:38:51;18.43;;;7.70;;
8268;SDS011;4174;48.304;16.364;2024-01-30T18:44:54;21.97;;;8.20;;
8268;SDS011;4174;48.304;16.364;2024-01-30T18:50:58;23.57;;;8.33;;
8268;SDS011;4174;48.304;16.364;2024-01-30T18:57:02;24.05;;;9.02;;
8268;SDS011;4174;48.304;16.364;2024-01-30T19:03:06;28.90;;;10.18;;
8268;SDS011;4174;48.304;16.364;2024-01-30T19:09:11;33.67;;;10.43;;
8268;SDS011;4174;48.304;16.364;2024-01-30T19:15:15;25.35;;;8.80;;
8268;SDS011;4174;48.304;16.364;2024-01-30T19:21:19;20.58;;;8.15;;
8268;SDS011;4174;48.304;16.364;2024-01-30T19:27:23;20.37;;;8.13;;
8268;SDS011;4174;48.304;16.364;2024-01-30T19:33:27;19.33;;;7.75;;
8268;SDS011;4174;48.304;16.364;2024-01-30T19:39:30;22.67;;;8.40;;
8268;SDS011;4174;48.304;16.364;2024-01-30T19:45:34;22.57;;;8.37;;
8268;SDS011;4174;48.304;16.364;2024-01-30T19:51:38;21.02;;;7.90;;
8268;SDS011;4174;48.304;16.364;2024-01-30T19:57:42;21.40;;;8.10;;
8268;SDS011;4174;48.304;16.364;2024-01-30T20:03:46;21.40;;;9.10;;
8268;SDS011;4174;48.304;16.364;2024-01-30T20:09:50;22.35;;;8.35;;
8268;SDS011;4174;48.304;16.364;2024-01-30T20:15:55;23.83;;;9.10;;
8268;SDS011;4174;48.304;16.364;2024-01-30T20:21:58;21.77;;;8.15;;
8268;SDS011;4174;48.304;16.364;2024-01-30T20:28:03;23.85;;;9.18;;
8268;SDS011;4174;48.304;16.364;2024-01-30T20:34:08;26.35;;;9.27;;
8268;SDS011;4174;48.304;16.364;2024-01-30T20:40:11;25.52;;;10.30;;
8268;SDS011;4174;48.304;16.364;2024-01-30T20:46:15;22.03;;;9.07;;
8268;SDS011;4174;48.304;16.364;2024-01-30T20:52:19;24.37;;;9.30;;
8268;SDS011;4174;48.304;16.364;2024-01-30T20:58:24;31.45;;;13.35;;
8268;SDS011;4174;48.304;16.364;2024-01-30T21:04:26;35.83;;;13.60;;
8268;SDS011;4174;48.304;16.364;2024-01-30T21:10:30;38.00;;;15.02;;
8268;SDS011;4174;48.304;16.364;2024-01-30T21:16:34;37.03;;;15.07;;
8268;SDS011;4174;48.304;16.364;2024-01-30T21:22:38;37.13;;;15.52;;
8268;SDS011;4174;48.304;16.364;2024-01-30T21:28:41;39.80;;;16.27;;
8268;SDS011;4174;48.304;16.364;2024-01-30T21:34:45;39.17;;;15.87;;
8268;SDS011;4174;48.304;16.364;2024-01-30T21:40:49;39.73;;;15.67;;
8268;SDS011;4174;48.304;16.364;2024-01-30T21:46:53;39.92;;;16.17;;
8268;SDS011;4174;48.304;16.364;2024-01-30T21:52:56;42.17;;;16.57;;
8268;SDS011;4174;48.304;16.364;2024-01-30T21:59:00;41.53;;;16.62;;
8268;SDS011;4174;48.304;16.364;2024-01-30T22:05:05;40.97;;;16.48;;
8268;SDS011;4174;48.304;16.364;2024-01-30T22:11:09;40.50;;;15.63;;
8268;SDS011;4174;48.304;16.364;2024-01-30T22:17:12;37.70;;;15.77;;
8268;SDS011;4174;48.304;16.364;2024-01-30T22:23:16;37.85;;;16.10;;
8268;SDS011;4174;48.304;16.364;2024-01-30T22:29:20;39.38;;;15.50;;
8268;SDS011;4174;48.304;16.364;2024-01-30T22:35:25;39.30;;;15.37;;
8268;SDS011;4174;48.304;16.364;2024-01-30T22:41:28;38.53;;;15.63;;
8268;SDS011;4174;48.304;16.364;2024-01-30T22:47:32;37.10;;;15.50;;
8268;SDS011;4174;48.304;16.364;2024-01-30T22:53:36;37.53;;;15.27;;
8268;SDS011;4174;48.304;16.364;2024-01-30T22:59:39;36.03;;;15.17;;
8268;SDS011;4174;48.304;16.364;2024-01-30T23:05:43;41.07;;;17.00;;
8268;SDS011;4174;48.304;16.364;2024-01-30T23:11:48;41.23;;;17.93;;
8268;SDS011;4174;48.304;16.364;2024-01-30T23:17:51;47.92;;;24.05;;
8268;SDS011;4174;48.304;16.364;2024-01-30T23:23:55;52.20;;;26.77;;
8268;SDS011;4174;48.304;16.364;2024-01-30T23:29:59;52.67;;;27.70;;
8268;SDS011;4174;48.304;16.364;2024-01-30T23:36:03;51.10;;;27.02;;
8268;SDS011;4174;48.304;16.364;2024-01-30T23:42:08;49.65;;;26.73;;
8268;SDS011;4174;48.304;16.364;2024-01-30T23:48:12;50.93;;;25.93;;
8268;SDS011;4174;48.304;16.364;2024-01-30T23:54:16;46.63;;;26.03;;
